sensor_id;sensor_type;location;lat;lon;timestamp;temperature;humidity
790;DHT22;378;48.844;9.156;2023-07-20T00:02:24;19.60;99.90
790;DHT22;378;48.844;9.156;2023-07-20T00:04:50;19.60;99.90
790;DHT22;378;48.844;9.156;2023-07-20T00:07:17;19.50;99.90
790;DHT22;378;48.844;9.156;2023-07-20T00:09:45;19.50;99.90
790;DHT22;378;48.844;9.156;2023-07-20T00:12:13;19.40;99.90
790;DHT22;378;48.844;9.156;2023-07-20T00:14:40;19.30;99.90
790;DHT22;378;48.844;9.156;2023-07-20T00:17:07;19.30;99.90
790;DHT22;378;48.844;9.156;2023-07-20T00:19:34;19.20;99.90
790;DHT22;378;48.844;9.156;2023-07-20T00:22:01;19.20;99.90
790;DHT22;378;48.844;9.156;2023-07-20T00:24:30;19.10;99.90
790;DHT22;378;48.844;9.156;2023-07-20T00:26:58;19.10;99.90
790;DHT22;378;48.844;9.156;2023-07-20T00:29:26;19.00;99.90
790;DHT22;378;48.844;9.156;2023-07-20T00:31:53;18.90;99.90
790;DHT22;378;48.844;9.156;2023-07-20T00:34:20;18.90;99.90
790;DHT22;378;48.844;9.156;2023-07-20T00:36:47;18.90;99.90
790;DHT22;378;48.844;9.156;2023-07-20T00:39:14;18.80;99.90
790;DHT22;378;48.844;9.156;2023-07-20T00:41:41;18.80;99.90
790;DHT22;378;48.844;9.156;2023-07-20T00:44:09;18.70;99.90
790;DHT22;378;48.844;9.156;2023-07-20T00:46:36;18.70;99.90
790;DHT22;378;48.844;9.156;2023-07-20T00:49:03;18.70;99.90
790;DHT22;378;48.844;9.156;2023-07-20T00:51:30;18.60;99.90
790;DHT22;378;48.844;9.156;2023-07-20T00:53:57;18.60;99.90
790;DHT22;378;48.844;9.156;2023-07-20T00:56:24;18.50;99.90
790;DHT22;378;48.844;9.156;2023-07-20T00:58:51;18.50;99.90
790;DHT22;378;48.844;9.156;2023-07-20T01:01:20;18.40;99.90
790;DHT22;378;48.844;9.156;2023-07-20T01:03:46;18.40;99.90
790;DHT22;378;48.844;9.156;2023-07-20T01:06:35;18.30;99.90
790;DHT22;378;48.844;9.156;2023-07-20T01:09:11;18.20;99.90
790;DHT22;378;48.844;9.156;2023-07-20T01:11:47;18.20;99.90
790;DHT22;378;48.844;9.156;2023-07-20T01:14:16;18.20;99.90
790;DHT22;378;48.844;9.156;2023-07-20T01:16:44;18.10;99.90
790;DHT22;378;48.844;9.156;2023-07-20T01:19:13;18.00;99.90
790;DHT22;378;48.844;9.156;2023-07-20T01:21:43;18.10;99.90
790;DHT22;378;48.844;9.156;2023-07-20T01:24:39;18.00;99.90
790;DHT22;378;48.844;9.156;2023-07-20T01:27:38;17.90;99.90
790;DHT22;378;48.844;9.156;2023-07-20T01:33:17;17.90;99.90
790;DHT22;378;48.844;9.156;2023-07-20T01:35:49;17.90;99.90
790;DHT22;378;48.844;9.156;2023-07-20T01:38:18;17.80;99.90
790;DHT22;378;48.844;9.156;2023-07-20T01:40:46;17.70;99.90
790;DHT22;378;48.844;9.156;2023-07-20T01:43:13;17.70;99.90
790;DHT22;378;48.844;9.156;2023-07-20T01:45:40;17.70;99.90
790;DHT22;378;48.844;9.156;2023-07-20T01:48:07;17.60;99.90
790;DHT22;378;48.844;9.156;2023-07-20T01:50:35;17.60;99.90
790;DHT22;378;48.844;9.156;2023-07-20T01:53:02;17.50;99.90
790;DHT22;378;48.844;9.156;2023-07-20T01:55:29;17.50;99.90
790;DHT22;378;48.844;9.156;2023-07-20T01:57:56;17.50;99.90
790;DHT22;378;48.844;9.156;2023-07-20T02:00:25;17.40;99.90
790;DHT22;378;48.844;9.156;2023-07-20T02:02:51;17.40;99.90
790;DHT22;378;48.844;9.156;2023-07-20T02:05:18;17.40;99.90
790;DHT22;378;48.844;9.156;2023-07-20T02:07:46;17.30;99.90
790;DHT22;378;48.844;9.156;2023-07-20T02:10:13;17.30;99.90
790;DHT22;378;48.844;9.156;2023-07-20T02:12:40;17.30;99.90
790;DHT22;378;48.844;9.156;2023-07-20T02:15:08;17.20;99.90
790;DHT22;378;48.844;9.156;2023-07-20T02:17:35;17.20;99.90
790;DHT22;378;48.844;9.156;2023-07-20T02:20:03;17.20;99.90
790;DHT22;378;48.844;9.156;2023-07-20T02:22:30;17.20;99.90
790;DHT22;378;48.844;9.156;2023-07-20T02:24:58;17.10;99.90
790;DHT22;378;48.844;9.156;2023-07-20T02:27:25;17.10;99.90
790;DHT22;378;48.844;9.156;2023-07-20T02:29:52;17.00;99.90
790;DHT22;378;48.844;9.156;2023-07-20T02:32:18;17.00;99.90
790;DHT22;378;48.844;9.156;2023-07-20T02:34:45;17.00;99.90
790;DHT22;378;48.844;9.156;2023-07-20T02:37:12;17.00;99.90
790;DHT22;378;48.844;9.156;2023-07-20T02:39:39;16.90;99.90
790;DHT22;378;48.844;9.156;2023-07-20T02:42:07;16.90;99.90
790;DHT22;378;48.844;9.156;2023-07-20T02:44:34;16.90;99.90
790;DHT22;378;48.844;9.156;2023-07-20T02:47:01;16.80;99.90
790;DHT22;378;48.844;9.156;2023-07-20T02:49:28;16.80;99.90
790;DHT22;378;48.844;9.156;2023-07-20T02:51:55;16.70;99.90
790;DHT22;378;48.844;9.156;2023-07-20T02:54:21;16.70;99.90
790;DHT22;378;48.844;9.156;2023-07-20T02:56:48;16.70;99.90
790;DHT22;378;48.844;9.156;2023-07-20T02:59:16;16.70;99.90
790;DHT22;378;48.844;9.156;2023-07-20T03:01:44;16.70;99.90
790;DHT22;378;48.844;9.156;2023-07-20T03:04:10;16.70;99.90
790;DHT22;378;48.844;9.156;2023-07-20T03:06:37;16.70;99.90
790;DHT22;378;48.844;9.156;2023-07-20T03:09:04;16.70;99.90
790;DHT22;378;48.844;9.156;2023-07-20T03:11:32;16.60;99.90
790;DHT22;378;48.844;9.156;2023-07-20T03:14:00;16.60;99.90
790;DHT22;378;48.844;9.156;2023-07-20T03:16:28;16.60;99.90
790;DHT22;378;48.844;9.156;2023-07-20T03:18:58;16.50;99.90
790;DHT22;378;48.844;9.156;2023-07-20T03:21:25;16.50;99.90
790;DHT22;378;48.844;9.156;2023-07-20T03:23:51;16.50;99.90
790;DHT22;378;48.844;9.156;2023-07-20T03:26:19;16.50;99.90
790;DHT22;378;48.844;9.156;2023-07-20T03:28:46;16.50;99.90
790;DHT22;378;48.844;9.156;2023-07-20T03:31:13;16.50;99.90
790;DHT22;378;48.844;9.156;2023-07-20T03:33:42;16.40;99.90
790;DHT22;378;48.844;9.156;2023-07-20T03:36:09;16.40;99.90
790;DHT22;378;48.844;9.156;2023-07-20T03:38:36;16.40;99.90
790;DHT22;378;48.844;9.156;2023-07-20T03:41:03;16.40;99.90
790;DHT22;378;48.844;9.156;2023-07-20T03:43:30;16.40;99.90
790;DHT22;378;48.844;9.156;2023-07-20T03:45:57;16.40;99.90
790;DHT22;378;48.844;9.156;2023-07-20T03:48:24;16.40;99.90
790;DHT22;378;48.844;9.156;2023-07-20T03:50:53;16.30;99.90
790;DHT22;378;48.844;9.156;2023-07-20T03:53:20;16.30;99.90
790;DHT22;378;48.844;9.156;2023-07-20T03:55:47;16.30;99.90
790;DHT22;378;48.844;9.156;2023-07-20T03:58:15;16.40;99.90
790;DHT22;378;48.844;9.156;2023-07-20T04:00:44;16.40;99.90
790;DHT22;378;48.844;9.156;2023-07-20T04:03:11;16.40;99.90
790;DHT22;378;48.844;9.156;2023-07-20T04:05:38;16.40;99.90
790;DHT22;378;48.844;9.156;2023-07-20T04:08:06;16.40;99.90
790;DHT22;378;48.844;9.156;2023-07-20T04:10:33;16.40;99.90
790;DHT22;378;48.844;9.156;2023-07-20T04:13:00;16.40;99.90
790;DHT22;378;48.844;9.156;2023-07-20T04:15:27;16.50;99.90
790;DHT22;378;48.844;9.156;2023-07-20T04:17:54;16.40;99.90
790;DHT22;378;48.844;9.156;2023-07-20T04:20:22;16.50;99.90
790;DHT22;378;48.844;9.156;2023-07-20T04:22:48;16.60;99.90
790;DHT22;378;48.844;9.156;2023-07-20T04:25:17;16.70;99.90
790;DHT22;378;48.844;9.156;2023-07-20T04:27:44;16.80;99.90
790;DHT22;378;48.844;9.156;2023-07-20T04:30:13;16.80;99.90
790;DHT22;378;48.844;9.156;2023-07-20T04:32:41;16.90;99.90
790;DHT22;378;48.844;9.156;2023-07-20T04:35:09;17.00;99.90
790;DHT22;378;48.844;9.156;2023-07-20T04:37:36;17.20;99.90
790;DHT22;378;48.844;9.156;2023-07-20T04:40:04;17.20;99.90
790;DHT22;378;48.844;9.156;2023-07-20T04:42:33;17.30;99.90
790;DHT22;378;48.844;9.156;2023-07-20T04:44:59;17.40;99.90
790;DHT22;378;48.844;9.156;2023-07-20T04:47:26;17.40;99.90
790;DHT22;378;48.844;9.156;2023-07-20T04:49:53;17.50;99.90
790;DHT22;378;48.844;9.156;2023-07-20T04:52:20;17.50;99.90
790;DHT22;378;48.844;9.156;2023-07-20T04:54:47;17.60;99.90
790;DHT22;378;48.844;9.156;2023-07-20T04:57:13;17.60;99.90
790;DHT22;378;48.844;9.156;2023-07-20T04:59:42;17.60;99.90
790;DHT22;378;48.844;9.156;2023-07-20T05:02:08;17.80;99.90
790;DHT22;378;48.844;9.156;2023-07-20T05:04:35;18.30;99.90
790;DHT22;378;48.844;9.156;2023-07-20T05:07:02;18.70;99.90
790;DHT22;378;48.844;9.156;2023-07-20T05:09:29;18.80;99.90
790;DHT22;378;48.844;9.156;2023-07-20T05:11:56;19.20;99.90
790;DHT22;378;48.844;9.156;2023-07-20T05:14:22;19.60;99.90
790;DHT22;378;48.844;9.156;2023-07-20T05:16:51;19.60;99.90
790;DHT22;378;48.844;9.156;2023-07-20T05:19:18;19.70;99.90
790;DHT22;378;48.844;9.156;2023-07-20T05:21:45;19.90;99.90
790;DHT22;378;48.844;9.156;2023-07-20T05:24:11;20.00;99.90
790;DHT22;378;48.844;9.156;2023-07-20T05:26:38;20.20;99.90
790;DHT22;378;48.844;9.156;2023-07-20T05:29:05;20.30;99.90
790;DHT22;378;48.844;9.156;2023-07-20T05:31:32;20.30;99.90
790;DHT22;378;48.844;9.156;2023-07-20T05:34:00;20.40;99.90
790;DHT22;378;48.844;9.156;2023-07-20T05:36:27;20.50;99.90
790;DHT22;378;48.844;9.156;2023-07-20T05:38:54;20.60;99.90
790;DHT22;378;48.844;9.156;2023-07-20T05:41:20;21.00;99.90
790;DHT22;378;48.844;9.156;2023-07-20T05:43:48;21.30;99.90
790;DHT22;378;48.844;9.156;2023-07-20T05:46:15;21.30;99.90
790;DHT22;378;48.844;9.156;2023-07-20T05:48:41;21.40;99.90
790;DHT22;378;48.844;9.156;2023-07-20T05:51:10;21.30;99.90
790;DHT22;378;48.844;9.156;2023-07-20T05:53:36;21.40;99.90
790;DHT22;378;48.844;9.156;2023-07-20T05:56:04;21.60;99.90
790;DHT22;378;48.844;9.156;2023-07-20T05:58:31;22.10;99.90
790;DHT22;378;48.844;9.156;2023-07-20T06:00:58;22.60;99.90
790;DHT22;378;48.844;9.156;2023-07-20T06:03:25;22.50;99.90
790;DHT22;378;48.844;9.156;2023-07-20T06:05:52;22.40;99.90
790;DHT22;378;48.844;9.156;2023-07-20T06:08:25;22.80;99.90
790;DHT22;378;48.844;9.156;2023-07-20T06:10:52;23.30;99.90
790;DHT22;378;48.844;9.156;2023-07-20T06:13:19;23.80;99.90
790;DHT22;378;48.844;9.156;2023-07-20T06:15:46;24.20;99.90
790;DHT22;378;48.844;9.156;2023-07-20T06:18:13;24.40;99.90
790;DHT22;378;48.844;9.156;2023-07-20T06:20:39;24.90;99.90
790;DHT22;378;48.844;9.156;2023-07-20T06:23:06;24.90;99.90
790;DHT22;378;48.844;9.156;2023-07-20T06:25:34;24.20;99.90
790;DHT22;378;48.844;9.156;2023-07-20T06:28:01;24.60;99.90
790;DHT22;378;48.844;9.156;2023-07-20T06:30:29;24.80;99.90
790;DHT22;378;48.844;9.156;2023-07-20T06:32:56;25.20;99.90
790;DHT22;378;48.844;9.156;2023-07-20T06:35:23;25.00;99.90
790;DHT22;378;48.844;9.156;2023-07-20T06:37:50;25.60;99.90
790;DHT22;378;48.844;9.156;2023-07-20T06:40:16;25.40;99.90
790;DHT22;378;48.844;9.156;2023-07-20T06:42:45;25.90;99.90
790;DHT22;378;48.844;9.156;2023-07-20T06:45:12;26.60;99.90
790;DHT22;378;48.844;9.156;2023-07-20T06:47:39;26.80;99.90
790;DHT22;378;48.844;9.156;2023-07-20T06:50:07;26.70;99.90
790;DHT22;378;48.844;9.156;2023-07-20T06:52:34;26.60;99.90
790;DHT22;378;48.844;9.156;2023-07-20T06:55:01;25.60;99.90
790;DHT22;378;48.844;9.156;2023-07-20T06:57:28;25.90;99.90
790;DHT22;378;48.844;9.156;2023-07-20T06:59:56;26.30;99.90
790;DHT22;378;48.844;9.156;2023-07-20T07:02:23;26.70;99.90
790;DHT22;378;48.844;9.156;2023-07-20T07:04:49;27.10;99.90
790;DHT22;378;48.844;9.156;2023-07-20T07:07:16;27.60;99.90
790;DHT22;378;48.844;9.156;2023-07-20T07:09:43;27.80;99.90
790;DHT22;378;48.844;9.156;2023-07-20T07:12:10;27.40;99.90
790;DHT22;378;48.844;9.156;2023-07-20T07:14:37;26.70;99.90
790;DHT22;378;48.844;9.156;2023-07-20T07:17:05;26.60;99.90
790;DHT22;378;48.844;9.156;2023-07-20T07:19:32;26.60;99.90
790;DHT22;378;48.844;9.156;2023-07-20T07:21:59;26.10;99.90
790;DHT22;378;48.844;9.156;2023-07-20T07:24:26;24.80;99.90
790;DHT22;378;48.844;9.156;2023-07-20T07:26:53;24.70;99.90
790;DHT22;378;48.844;9.156;2023-07-20T07:29:20;25.00;99.90
790;DHT22;378;48.844;9.156;2023-07-20T07:31:46;25.00;99.90
790;DHT22;378;48.844;9.156;2023-07-20T07:34:15;25.10;99.90
790;DHT22;378;48.844;9.156;2023-07-20T07:36:42;25.00;99.90
790;DHT22;378;48.844;9.156;2023-07-20T07:39:09;25.10;99.90
790;DHT22;378;48.844;9.156;2023-07-20T07:41:36;25.50;99.90
790;DHT22;378;48.844;9.156;2023-07-20T07:44:03;25.50;99.90
790;DHT22;378;48.844;9.156;2023-07-20T07:46:29;25.70;99.90
790;DHT22;378;48.844;9.156;2023-07-20T07:48:56;26.20;99.90
790;DHT22;378;48.844;9.156;2023-07-20T07:51:24;26.40;99.90
790;DHT22;378;48.844;9.156;2023-07-20T07:53:52;26.70;99.90
790;DHT22;378;48.844;9.156;2023-07-20T07:56:19;26.40;99.90
790;DHT22;378;48.844;9.156;2023-07-20T07:58:48;26.20;99.90
790;DHT22;378;48.844;9.156;2023-07-20T08:01:15;27.20;99.90
790;DHT22;378;48.844;9.156;2023-07-20T08:03:42;28.10;99.60
790;DHT22;378;48.844;9.156;2023-07-20T08:06:11;28.20;98.40
790;DHT22;378;48.844;9.156;2023-07-20T08:08:39;28.60;98.60
790;DHT22;378;48.844;9.156;2023-07-20T08:11:06;29.60;97.40
790;DHT22;378;48.844;9.156;2023-07-20T08:13:33;28.50;97.30
790;DHT22;378;48.844;9.156;2023-07-20T08:16:01;27.40;98.20
790;DHT22;378;48.844;9.156;2023-07-20T08:18:28;26.60;99.20
790;DHT22;378;48.844;9.156;2023-07-20T08:20:56;25.10;99.90
790;DHT22;378;48.844;9.156;2023-07-20T08:23:23;24.20;99.90
790;DHT22;378;48.844;9.156;2023-07-20T08:25:52;25.00;99.90
790;DHT22;378;48.844;9.156;2023-07-20T08:28:19;26.40;99.90
790;DHT22;378;48.844;9.156;2023-07-20T08:30:48;27.10;99.80
790;DHT22;378;48.844;9.156;2023-07-20T08:33:17;27.40;98.60
790;DHT22;378;48.844;9.156;2023-07-20T08:35:45;28.30;97.60
790;DHT22;378;48.844;9.156;2023-07-20T08:38:12;29.10;97.30
790;DHT22;378;48.844;9.156;2023-07-20T08:40:41;29.90;96.20
790;DHT22;378;48.844;9.156;2023-07-20T08:43:10;31.00;94.60
790;DHT22;378;48.844;9.156;2023-07-20T08:45:39;31.80;93.10
790;DHT22;378;48.844;9.156;2023-07-20T08:48:07;31.70;91.90
790;DHT22;378;48.844;9.156;2023-07-20T08:50:35;30.50;92.30
790;DHT22;378;48.844;9.156;2023-07-20T08:53:02;28.90;94.30
790;DHT22;378;48.844;9.156;2023-07-20T08:55:30;28.00;94.20
790;DHT22;378;48.844;9.156;2023-07-20T08:57:58;27.70;95.50
790;DHT22;378;48.844;9.156;2023-07-20T09:00:27;27.40;95.30
790;DHT22;378;48.844;9.156;2023-07-20T09:02:55;28.00;96.00
790;DHT22;378;48.844;9.156;2023-07-20T09:05:23;28.90;94.70
790;DHT22;378;48.844;9.156;2023-07-20T09:07:51;30.30;93.90
790;DHT22;378;48.844;9.156;2023-07-20T09:10:21;30.40;93.20
790;DHT22;378;48.844;9.156;2023-07-20T09:12:47;30.30;93.20
790;DHT22;378;48.844;9.156;2023-07-20T09:15:15;30.30;93.30
790;DHT22;378;48.844;9.156;2023-07-20T09:17:47;29.50;93.40
790;DHT22;378;48.844;9.156;2023-07-20T09:20:15;28.60;94.10
790;DHT22;378;48.844;9.156;2023-07-20T09:22:42;28.20;94.50
790;DHT22;378;48.844;9.156;2023-07-20T09:25:11;28.80;93.30
790;DHT22;378;48.844;9.156;2023-07-20T09:27:40;29.70;92.90
790;DHT22;378;48.844;9.156;2023-07-20T09:30:08;29.90;92.10
790;DHT22;378;48.844;9.156;2023-07-20T09:32:41;29.80;92.70
790;DHT22;378;48.844;9.156;2023-07-20T09:35:14;29.60;91.50
790;DHT22;378;48.844;9.156;2023-07-20T09:37:48;29.60;92.40
790;DHT22;378;48.844;9.156;2023-07-20T09:40:17;30.10;90.40
790;DHT22;378;48.844;9.156;2023-07-20T09:42:45;30.10;89.30
790;DHT22;378;48.844;9.156;2023-07-20T09:45:12;30.60;90.10
790;DHT22;378;48.844;9.156;2023-07-20T09:47:39;31.10;87.20
790;DHT22;378;48.844;9.156;2023-07-20T09:50:07;31.90;85.50
790;DHT22;378;48.844;9.156;2023-07-20T09:52:38;32.90;83.40
790;DHT22;378;48.844;9.156;2023-07-20T09:55:07;32.70;80.00
790;DHT22;378;48.844;9.156;2023-07-20T09:57:34;31.20;83.60
790;DHT22;378;48.844;9.156;2023-07-20T10:00:04;31.00;82.40
790;DHT22;378;48.844;9.156;2023-07-20T10:02:39;31.10;82.30
790;DHT22;378;48.844;9.156;2023-07-20T10:05:08;31.30;83.90
790;DHT22;378;48.844;9.156;2023-07-20T10:07:43;31.70;81.60
790;DHT22;378;48.844;9.156;2023-07-20T10:10:13;32.00;80.20
790;DHT22;378;48.844;9.156;2023-07-20T10:12:41;31.70;80.80
790;DHT22;378;48.844;9.156;2023-07-20T10:15:11;31.80;78.80
790;DHT22;378;48.844;9.156;2023-07-20T10:17:46;32.10;78.80
790;DHT22;378;48.844;9.156;2023-07-20T10:20:16;32.60;76.80
790;DHT22;378;48.844;9.156;2023-07-20T10:22:48;33.00;76.60
790;DHT22;378;48.844;9.156;2023-07-20T10:25:16;33.70;75.10
790;DHT22;378;48.844;9.156;2023-07-20T10:27:45;33.60;73.00
790;DHT22;378;48.844;9.156;2023-07-20T10:30:12;33.40;73.60
790;DHT22;378;48.844;9.156;2023-07-20T10:32:41;33.60;72.70
790;DHT22;378;48.844;9.156;2023-07-20T10:35:15;34.00;72.50
790;DHT22;378;48.844;9.156;2023-07-20T10:37:51;33.80;70.40
790;DHT22;378;48.844;9.156;2023-07-20T10:40:29;33.40;69.10
790;DHT22;378;48.844;9.156;2023-07-20T10:43:02;33.50;70.90
790;DHT22;378;48.844;9.156;2023-07-20T10:45:39;33.50;70.70
790;DHT22;378;48.844;9.156;2023-07-20T10:48:12;33.80;70.70
790;DHT22;378;48.844;9.156;2023-07-20T10:50:40;33.20;68.90
790;DHT22;378;48.844;9.156;2023-07-20T10:53:14;33.70;69.30
790;DHT22;378;48.844;9.156;2023-07-20T10:55:42;33.20;68.90
790;DHT22;378;48.844;9.156;2023-07-20T10:58:10;33.40;70.20
790;DHT22;378;48.844;9.156;2023-07-20T11:00:38;32.10;70.70
790;DHT22;378;48.844;9.156;2023-07-20T11:03:29;32.20;71.70
790;DHT22;378;48.844;9.156;2023-07-20T11:05:57;32.60;70.30
790;DHT22;378;48.844;9.156;2023-07-20T11:08:42;31.80;69.60
790;DHT22;378;48.844;9.156;2023-07-20T11:11:25;32.30;71.40
790;DHT22;378;48.844;9.156;2023-07-20T11:44:04;29.70;70.90
790;DHT22;378;48.844;9.156;2023-07-20T11:46:32;29.50;73.40
790;DHT22;378;48.844;9.156;2023-07-20T11:48:59;29.60;73.50
790;DHT22;378;48.844;9.156;2023-07-20T11:51:28;30.20;73.60
790;DHT22;378;48.844;9.156;2023-07-20T11:53:55;31.40;74.60
790;DHT22;378;48.844;9.156;2023-07-20T11:56:23;31.60;69.70
790;DHT22;378;48.844;9.156;2023-07-20T11:58:50;32.40;70.00
790;DHT22;378;48.844;9.156;2023-07-20T12:01:19;33.70;67.50
790;DHT22;378;48.844;9.156;2023-07-20T12:03:47;34.60;64.60
790;DHT22;378;48.844;9.156;2023-07-20T12:06:14;35.70;62.90
790;DHT22;378;48.844;9.156;2023-07-20T12:08:42;37.30;64.20
790;DHT22;378;48.844;9.156;2023-07-20T12:11:10;38.00;62.20
790;DHT22;378;48.844;9.156;2023-07-20T12:13:38;38.60;62.60
790;DHT22;378;48.844;9.156;2023-07-20T12:16:11;40.30;62.00
790;DHT22;378;48.844;9.156;2023-07-20T12:18:41;40.60;57.30
790;DHT22;378;48.844;9.156;2023-07-20T12:21:08;41.00;55.60
790;DHT22;378;48.844;9.156;2023-07-20T12:23:35;41.40;53.50
790;DHT22;378;48.844;9.156;2023-07-20T12:26:06;41.80;55.00
790;DHT22;378;48.844;9.156;2023-07-20T12:28:36;42.10;53.60
790;DHT22;378;48.844;9.156;2023-07-20T12:31:05;43.20;54.10
790;DHT22;378;48.844;9.156;2023-07-20T12:33:31;42.10;51.60
790;DHT22;378;48.844;9.156;2023-07-20T12:35:59;42.50;51.50
790;DHT22;378;48.844;9.156;2023-07-20T12:38:26;43.20;51.40
790;DHT22;378;48.844;9.156;2023-07-20T12:40:54;43.40;51.50
790;DHT22;378;48.844;9.156;2023-07-20T12:43:21;42.60;49.20
790;DHT22;378;48.844;9.156;2023-07-20T12:45:48;43.30;48.90
790;DHT22;378;48.844;9.156;2023-07-20T12:48:15;43.10;49.10
790;DHT22;378;48.844;9.156;2023-07-20T12:50:42;40.70;46.90
790;DHT22;378;48.844;9.156;2023-07-20T12:53:10;41.40;50.10
790;DHT22;378;48.844;9.156;2023-07-20T12:55:37;42.30;47.30
790;DHT22;378;48.844;9.156;2023-07-20T12:58:04;43.40;48.80
790;DHT22;378;48.844;9.156;2023-07-20T13:00:31;43.70;46.50
790;DHT22;378;48.844;9.156;2023-07-20T13:02:58;44.10;45.80
790;DHT22;378;48.844;9.156;2023-07-20T13:05:25;45.10;48.20
790;DHT22;378;48.844;9.156;2023-07-20T13:07:51;44.30;44.90
790;DHT22;378;48.844;9.156;2023-07-20T13:10:20;43.30;45.30
790;DHT22;378;48.844;9.156;2023-07-20T13:12:46;41.40;46.00
790;DHT22;378;48.844;9.156;2023-07-20T13:15:13;39.90;46.20
790;DHT22;378;48.844;9.156;2023-07-20T13:17:40;39.10;49.80
790;DHT22;378;48.844;9.156;2023-07-20T13:20:08;37.50;48.30
790;DHT22;378;48.844;9.156;2023-07-20T13:22:36;35.60;49.00
790;DHT22;378;48.844;9.156;2023-07-20T13:25:03;32.30;52.20
790;DHT22;378;48.844;9.156;2023-07-20T13:27:32;30.20;56.60
790;DHT22;378;48.844;9.156;2023-07-20T13:29:59;28.70;61.70
790;DHT22;378;48.844;9.156;2023-07-20T13:32:32;28.10;61.20
790;DHT22;378;48.844;9.156;2023-07-20T13:34:58;27.50;64.50
790;DHT22;378;48.844;9.156;2023-07-20T13:37:25;27.30;67.60
790;DHT22;378;48.844;9.156;2023-07-20T13:39:52;27.70;63.90
790;DHT22;378;48.844;9.156;2023-07-20T13:42:19;27.80;64.80
790;DHT22;378;48.844;9.156;2023-07-20T13:44:48;27.50;61.20
790;DHT22;378;48.844;9.156;2023-07-20T13:47:15;27.50;65.00
790;DHT22;378;48.844;9.156;2023-07-20T13:49:42;27.50;66.70
790;DHT22;378;48.844;9.156;2023-07-20T13:52:09;27.80;62.60
790;DHT22;378;48.844;9.156;2023-07-20T13:54:36;28.70;61.90
790;DHT22;378;48.844;9.156;2023-07-20T13:57:03;29.60;62.30
790;DHT22;378;48.844;9.156;2023-07-20T13:59:30;30.70;60.20
790;DHT22;378;48.844;9.156;2023-07-20T14:01:58;31.40;57.70
790;DHT22;378;48.844;9.156;2023-07-20T14:04:25;31.20;56.80
790;DHT22;378;48.844;9.156;2023-07-20T14:06:52;31.90;57.20
790;DHT22;378;48.844;9.156;2023-07-20T14:09:18;32.80;55.90
790;DHT22;378;48.844;9.156;2023-07-20T14:11:45;33.00;56.10
790;DHT22;378;48.844;9.156;2023-07-20T14:14:12;33.20;54.70
790;DHT22;378;48.844;9.156;2023-07-20T14:16:39;33.10;54.00
790;DHT22;378;48.844;9.156;2023-07-20T14:19:07;34.40;54.20
790;DHT22;378;48.844;9.156;2023-07-20T14:21:34;36.00;51.80
790;DHT22;378;48.844;9.156;2023-07-20T14:24:01;37.30;50.50
790;DHT22;378;48.844;9.156;2023-07-20T14:26:27;39.20;50.40
790;DHT22;378;48.844;9.156;2023-07-20T14:28:54;40.70;47.20
790;DHT22;378;48.844;9.156;2023-07-20T14:31:21;40.60;45.50
790;DHT22;378;48.844;9.156;2023-07-20T14:33:48;39.20;45.70
790;DHT22;378;48.844;9.156;2023-07-20T14:36:16;37.90;46.50
790;DHT22;378;48.844;9.156;2023-07-20T14:38:43;36.50;47.70
790;DHT22;378;48.844;9.156;2023-07-20T14:41:10;35.50;47.90
790;DHT22;378;48.844;9.156;2023-07-20T14:43:43;35.40;50.10
790;DHT22;378;48.844;9.156;2023-07-20T14:46:10;35.80;49.00
790;DHT22;378;48.844;9.156;2023-07-20T14:48:36;36.80;49.30
790;DHT22;378;48.844;9.156;2023-07-20T14:51:03;36.50;48.90
790;DHT22;378;48.844;9.156;2023-07-20T14:53:31;35.70;49.10
790;DHT22;378;48.844;9.156;2023-07-20T14:55:59;34.70;49.20
790;DHT22;378;48.844;9.156;2023-07-20T14:58:26;33.50;50.30
790;DHT22;378;48.844;9.156;2023-07-20T15:00:53;32.50;51.50
790;DHT22;378;48.844;9.156;2023-07-20T15:03:20;31.70;53.10
790;DHT22;378;48.844;9.156;2023-07-20T15:05:47;31.20;53.20
790;DHT22;378;48.844;9.156;2023-07-20T15:08:13;30.80;54.80
790;DHT22;378;48.844;9.156;2023-07-20T15:10:42;30.50;54.60
790;DHT22;378;48.844;9.156;2023-07-20T15:13:12;30.20;56.50
790;DHT22;378;48.844;9.156;2023-07-20T15:15:39;30.10;55.00
790;DHT22;378;48.844;9.156;2023-07-20T15:18:07;29.90;55.40
790;DHT22;378;48.844;9.156;2023-07-20T15:20:34;29.70;55.30
790;DHT22;378;48.844;9.156;2023-07-20T15:23:01;29.20;56.00
790;DHT22;378;48.844;9.156;2023-07-20T15:25:27;29.10;57.70
790;DHT22;378;48.844;9.156;2023-07-20T15:27:55;29.10;58.20
790;DHT22;378;48.844;9.156;2023-07-20T15:30:22;29.10;58.20
790;DHT22;378;48.844;9.156;2023-07-20T15:32:49;29.10;57.50
790;DHT22;378;48.844;9.156;2023-07-20T15:35:16;28.80;57.40
790;DHT22;378;48.844;9.156;2023-07-20T15:37:43;28.60;57.70
790;DHT22;378;48.844;9.156;2023-07-20T15:40:11;28.30;56.30
790;DHT22;378;48.844;9.156;2023-07-20T15:42:38;27.90;56.80
790;DHT22;378;48.844;9.156;2023-07-20T15:45:08;27.70;59.20
790;DHT22;378;48.844;9.156;2023-07-20T15:47:35;27.50;60.00
790;DHT22;378;48.844;9.156;2023-07-20T15:50:02;27.50;60.10
790;DHT22;378;48.844;9.156;2023-07-20T15:52:28;27.50;60.50
790;DHT22;378;48.844;9.156;2023-07-20T15:54:55;27.40;60.10
790;DHT22;378;48.844;9.156;2023-07-20T15:57:23;27.30;60.10
790;DHT22;378;48.844;9.156;2023-07-20T15:59:49;27.50;59.10
790;DHT22;378;48.844;9.156;2023-07-20T16:02:18;28.40;59.20
790;DHT22;378;48.844;9.156;2023-07-20T16:04:44;29.40;58.20
790;DHT22;378;48.844;9.156;2023-07-20T16:07:11;29.60;56.50
790;DHT22;378;48.844;9.156;2023-07-20T16:09:38;30.40;56.90
790;DHT22;378;48.844;9.156;2023-07-20T16:12:06;30.50;56.10
790;DHT22;378;48.844;9.156;2023-07-20T16:14:33;30.20;54.70
790;DHT22;378;48.844;9.156;2023-07-20T16:17:00;30.20;55.10
790;DHT22;378;48.844;9.156;2023-07-20T16:19:29;29.60;55.30
790;DHT22;378;48.844;9.156;2023-07-20T16:21:55;28.70;55.90
790;DHT22;378;48.844;9.156;2023-07-20T16:24:22;28.20;57.80
790;DHT22;378;48.844;9.156;2023-07-20T16:26:49;28.10;59.00
790;DHT22;378;48.844;9.156;2023-07-20T16:29:16;28.50;57.60
790;DHT22;378;48.844;9.156;2023-07-20T16:31:43;28.60;55.90
790;DHT22;378;48.844;9.156;2023-07-20T16:34:10;28.30;57.70
790;DHT22;378;48.844;9.156;2023-07-20T16:36:38;28.20;56.70
790;DHT22;378;48.844;9.156;2023-07-20T16:39:07;28.00;58.40
790;DHT22;378;48.844;9.156;2023-07-20T16:41:35;27.90;58.00
790;DHT22;378;48.844;9.156;2023-07-20T16:44:02;27.90;58.00
790;DHT22;378;48.844;9.156;2023-07-20T16:46:29;27.70;58.20
790;DHT22;378;48.844;9.156;2023-07-20T16:48:57;27.70;59.30
790;DHT22;378;48.844;9.156;2023-07-20T16:51:31;27.30;60.00
790;DHT22;378;48.844;9.156;2023-07-20T16:53:59;26.90;59.10
790;DHT22;378;48.844;9.156;2023-07-20T16:56:26;26.40;58.90
790;DHT22;378;48.844;9.156;2023-07-20T16:58:52;26.20;59.30
790;DHT22;378;48.844;9.156;2023-07-20T17:01:19;26.10;59.60
790;DHT22;378;48.844;9.156;2023-07-20T17:03:46;26.00;67.80
790;DHT22;378;48.844;9.156;2023-07-20T17:06:14;26.00;61.00
790;DHT22;378;48.844;9.156;2023-07-20T17:08:40;25.70;68.50
790;DHT22;378;48.844;9.156;2023-07-20T17:11:09;25.30;68.40
790;DHT22;378;48.844;9.156;2023-07-20T17:16:01;25.60;64.80